Time;durP1;ratioP1;P1;durP2;ratioP2;P2;SDS_P1;SDS_P2;PMS_P1;PMS_P2;Temp;Humidity;BMP_temperature;BMP_pressure;BME280_temperature;BME280_humidity;BME280_pressure;Samples;Min_cycle;Max_cycle;Signal;HPM_P1;HPM_P2
2023/03/20 00:01:43;;;;;;;14.05;6.50;;;;;;;;;;4963842;28;25070;-76
2023/03/20 00:04:11;;;;;;;13.18;6.78;;;;;;;;;;4945830;28;25070;-75
2023/03/20 00:06:37;;;;;;;20.30;7.93;;;;;;;;;;4959164;28;25057;-75
2023/03/20 00:09:03;;;;;;;18.50;7.60;;;;;;;;;;4949261;28;25100;-76
2023/03/20 00:11:31;;;;;;;16.55;7.97;;;;;;;;;;4941493;28;25052;-74
2023/03/20 00:14:02;;;;;;;21.02;7.05;;;;;;;;;;4946029;28;25064;-76
2023/03/20 00:16:32;;;;;;;23.45;9.27;;;;;;;;;;4951279;28;25161;-74
2023/03/20 00:18:58;;;;;;;17.35;9.00;;;;;;;;;;4943985;28;25068;-75
2023/03/20 00:21:25;;;;;;;21.73;8.20;;;;;;;;;;4944943;28;25107;-74
2023/03/20 00:23:51;;;;;;;25.08;9.48;;;;;;;;;;4942615;28;25081;-74
2023/03/20 00:26:18;;;;;;;19.40;9.20;;;;;;;;;;4952971;28;25084;-75
2023/03/20 00:28:49;;;;;;;22.20;9.82;;;;;;;;;;4949444;28;25055;-76
2023/03/20 00:31:15;;;;;;;25.52;9.63;;;;;;;;;;4945463;28;25084;-76
2023/03/20 00:33:41;;;;;;;25.90;9.65;;;;;;;;;;4944965;28;25087;-74
2023/03/20 00:36:08;;;;;;;30.67;12.73;;;;;;;;;;4953135;28;25080;-75
2023/03/20 00:38:34;;;;;;;23.33;9.90;;;;;;;;;;4951277;28;25058;-73
2023/03/20 00:41:00;;;;;;;38.35;11.48;;;;;;;;;;4947312;28;25119;-76
2023/03/20 00:43:26;;;;;;;34.28;12.60;;;;;;;;;;4950614;28;25080;-74
2023/03/20 00:45:53;;;;;;;25.95;11.85;;;;;;;;;;4948658;28;25081;-76
2023/03/20 00:48:19;;;;;;;29.23;11.57;;;;;;;;;;4950757;28;25075;-74
2023/03/20 00:50:45;;;;;;;28.20;11.43;;;;;;;;;;4945503;28;25071;-76
2023/03/20 00:53:11;;;;;;;32.60;11.32;;;;;;;;;;4952351;28;25074;-75
2023/03/20 00:55:38;;;;;;;27.23;11.93;;;;;;;;;;4952779;28;25160;-74
2023/03/20 00:58:05;;;;;;;26.67;11.88;;;;;;;;;;4952709;28;25143;-75
2023/03/20 01:00:41;;;;;;;28.92;11.13;;;;;;;;;;4945774;28;25063;-76
2023/03/20 01:03:21;;;;;;;30.42;12.43;;;;;;;;;;4950552;28;25083;-76
2023/03/20 01:05:48;;;;;;;27.70;11.20;;;;;;;;;;4948550;28;25107;-76
2023/03/20 01:08:16;;;;;;;31.52;11.65;;;;;;;;;;4954283;28;25091;-74
2023/03/20 01:10:44;;;;;;;26.45;9.63;;;;;;;;;;4951566;28;25116;-74
2023/03/20 01:13:15;;;;;;;25.33;9.55;;;;;;;;;;4947354;28;25061;-75
2023/03/20 01:15:41;;;;;;;25.83;10.75;;;;;;;;;;4947822;28;25114;-76
2023/03/20 01:18:08;;;;;;;25.60;10.15;;;;;;;;;;4954958;28;25098;-73
2023/03/20 01:20:34;;;;;;;28.65;11.20;;;;;;;;;;4958074;28;25067;-76
2023/03/20 01:23:00;;;;;;;27.33;9.90;;;;;;;;;;4954305;28;25087;-76
2023/03/20 01:25:26;;;;;;;21.90;11.05;;;;;;;;;;4986302;28;25066;-73
2023/03/20 01:27:53;;;;;;;26.10;10.30;;;;;;;;;;4945504;28;25086;-75
2023/03/20 01:30:23;;;;;;;30.25;12.52;;;;;;;;;;4947815;28;25062;-77
2023/03/20 01:32:49;;;;;;;33.88;9.80;;;;;;;;;;4958871;28;25060;-77
2023/03/20 01:35:16;;;;;;;31.70;11.10;;;;;;;;;;4951739;28;25109;-75
2023/03/20 01:37:43;;;;;;;26.27;11.90;;;;;;;;;;4935770;28;25083;-75
2023/03/20 01:40:16;;;;;;;29.65;12.27;;;;;;;;;;4942121;28;25069;-78
2023/03/20 01:42:42;;;;;;;25.77;11.35;;;;;;;;;;4943869;28;25059;-78
2023/03/20 01:45:19;;;;;;;25.13;11.02;;;;;;;;;;4941612;28;25129;-75
2023/03/20 01:47:45;;;;;;;25.73;11.32;;;;;;;;;;4950735;28;25073;-75
2023/03/20 01:50:22;;;;;;;29.27;11.18;;;;;;;;;;4944602;28;25072;-75
2023/03/20 01:52:50;;;;;;;24.80;11.20;;;;;;;;;;4945335;28;25062;-73
2023/03/20 01:55:17;;;;;;;35.58;11.90;;;;;;;;;;4942692;28;25075;-75
2023/03/20 01:57:43;;;;;;;23.75;9.60;;;;;;;;;;4943712;28;25057;-75
2023/03/20 02:00:10;;;;;;;26.95;9.80;;;;;;;;;;4951248;28;25095;-75
2023/03/20 02:02:38;;;;;;;28.67;10.95;;;;;;;;;;4964845;28;25067;-75
2023/03/20 02:05:06;;;;;;;26.38;10.48;;;;;;;;;;4951702;28;25148;-75
2023/03/20 02:07:33;;;;;;;26.70;10.20;;;;;;;;;;4945478;28;25070;-77
2023/03/20 02:09:59;;;;;;;30.40;10.05;;;;;;;;;;4950217;28;25070;-76
2023/03/20 02:12:25;;;;;;;26.05;10.00;;;;;;;;;;4949462;28;25138;-74
2023/03/20 02:14:51;;;;;;;24.77;10.25;;;;;;;;;;4938198;28;25184;-75
2023/03/20 02:17:18;;;;;;;27.17;11.52;;;;;;;;;;4984948;28;25094;-75
2023/03/20 02:19:57;;;;;;;25.50;9.93;;;;;;;;;;4950474;28;25063;-75
2023/03/20 02:22:44;;;;;;;25.52;9.80;;;;;;;;;;4938007;28;25085;-75
2023/03/20 02:25:14;;;;;;;21.77;8.93;;;;;;;;;;4949350;28;25064;-76
2023/03/20 02:27:59;;;;;;;22.08;9.15;;;;;;;;;;4949209;28;25069;-76
2023/03/20 02:30:25;;;;;;;22.88;10.32;;;;;;;;;;4938410;28;25080;-75
2023/03/20 02:33:10;;;;;;;26.02;9.93;;;;;;;;;;4957828;28;25142;-75
2023/03/20 02:35:36;;;;;;;23.73;9.52;;;;;;;;;;4938888;28;25149;-74
2023/03/20 02:38:05;;;;;;;22.88;9.75;;;;;;;;;;4949531;28;25086;-75
2023/03/20 02:40:32;;;;;;;22.55;8.23;;;;;;;;;;4957252;28;25081;-75
2023/03/20 02:43:04;;;;;;;23.95;8.65;;;;;;;;;;4951920;28;25047;-74
2023/03/20 02:45:35;;;;;;;21.90;8.95;;;;;;;;;;4950961;28;25172;-76
2023/03/20 02:48:16;;;;;;;19.75;8.80;;;;;;;;;;4944776;28;25119;-76
2023/03/20 02:51:01;;;;;;;23.73;9.27;;;;;;;;;;4951028;28;25112;-75
2023/03/20 02:53:43;;;;;;;22.13;8.73;;;;;;;;;;4940279;28;25161;-76
2023/03/20 02:56:32;;;;;;;23.73;9.32;;;;;;;;;;4941884;28;25102;-75
2023/03/20 02:59:19;;;;;;;22.65;8.65;;;;;;;;;;4935296;28;25083;-76
2023/03/20 03:01:50;;;;;;;25.50;8.30;;;;;;;;;;4936152;28;25103;-76
2023/03/20 03:04:18;;;;;;;24.95;8.82;;;;;;;;;;4949279;28;25172;-75
2023/03/20 03:06:46;;;;;;;25.02;9.13;;;;;;;;;;4944873;28;25063;-76
2023/03/20 03:09:14;;;;;;;19.77;8.63;;;;;;;;;;4943312;28;25117;-75
2023/03/20 03:11:45;;;;;;;20.42;8.82;;;;;;;;;;4944030;28;25133;-74
2023/03/20 03:14:18;;;;;;;21.90;8.05;;;;;;;;;;4941550;28;25068;-76
2023/03/20 03:16:45;;;;;;;17.10;8.10;;;;;;;;;;4942011;28;25073;-76
2023/03/20 03:19:19;;;;;;;23.65;8.05;;;;;;;;;;4942313;28;25077;-77
2023/03/20 03:21:46;;;;;;;22.77;9.07;;;;;;;;;;4951843;28;25102;-75
2023/03/20 03:24:31;;;;;;;17.55;8.73;;;;;;;;;;4942381;28;25083;-76
2023/03/20 03:27:00;;;;;;;14.70;8.35;;;;;;;;;;4943574;28;25059;-75
2023/03/20 03:29:28;;;;;;;19.45;8.88;;;;;;;;;;4941726;28;25082;-76
2023/03/20 03:31:54;;;;;;;20.90;8.55;;;;;;;;;;4948874;28;25067;-75
2023/03/20 03:34:21;;;;;;;20.42;10.35;;;;;;;;;;4947117;28;25074;-76
2023/03/20 03:36:54;;;;;;;23.15;10.80;;;;;;;;;;4943133;28;25071;-76
2023/03/20 03:39:32;;;;;;;21.50;10.38;;;;;;;;;;4949188;28;25049;-70
2023/03/20 03:42:03;;;;;;;24.65;10.45;;;;;;;;;;4951003;28;25069;-75
2023/03/20 03:44:34;;;;;;;26.05;10.88;;;;;;;;;;4947367;28;25109;-75
2023/03/20 03:47:27;;;;;;;20.30;10.65;;;;;;;;;;4944628;28;25067;-73
2023/03/20 03:49:56;;;;;;;24.17;10.60;;;;;;;;;;4950904;28;25093;-76
2023/03/20 03:52:24;;;;;;;22.33;10.57;;;;;;;;;;4943477;28;25111;-76
2023/03/20 03:54:54;;;;;;;25.52;11.05;;;;;;;;;;4961854;28;25063;-75
2023/03/20 03:57:27;;;;;;;24.75;10.90;;;;;;;;;;4953356;28;25089;-75
2023/03/20 03:59:54;;;;;;;21.90;10.80;;;;;;;;;;4957416;28;25083;-76
2023/03/20 04:02:21;;;;;;;28.40;11.32;;;;;;;;;;4983852;28;25055;-73
2023/03/20 04:04:50;;;;;;;27.23;10.63;;;;;;;;;;4953900;28;25074;-76
2023/03/20 04:07:16;;;;;;;25.98;10.90;;;;;;;;;;4944081;28;25075;-77
2023/03/20 04:09:42;;;;;;;22.45;11.20;;;;;;;;;;4961954;28;25145;-74
2023/03/20 04:12:25;;;;;;;27.80;11.73;;;;;;;;;;4950151;28;25092;-75
2023/03/20 04:14:51;;;;;;;25.75;10.65;;;;;;;;;;4952256;28;25068;-76
2023/03/20 04:17:17;;;;;;;28.48;11.07;;;;;;;;;;4954317;28;25105;-73
2023/03/20 04:19:43;;;;;;;26.88;10.88;;;;;;;;;;4958806;28;25095;-74
2023/03/20 04:22:09;;;;;;;25.92;11.88;;;;;;;;;;4952473;28;25074;-76
2023/03/20 04:24:35;;;;;;;28.40;11.38;;;;;;;;;;4951183;28;25089;-75
2023/03/20 04:27:01;;;;;;;22.23;10.77;;;;;;;;;;4956409;28;25104;-75
2023/03/20 04:29:27;;;;;;;25.95;11.52;;;;;;;;;;4939581;28;25070;-72
2023/03/20 04:31:53;;;;;;;25.92;12.07;;;;;;;;;;4947339;28;25140;-77
2023/03/20 04:34:19;;;;;;;28.17;11.40;;;;;;;;;;4951052;28;25067;-76
2023/03/20 04:36:45;;;;;;;34.13;12.23;;;;;;;;;;4946960;28;25076;-74
2023/03/20 04:39:12;;;;;;;27.35;11.25;;;;;;;;;;4947042;28;25055;-75
2023/03/20 04:41:38;;;;;;;24.10;11.15;;;;;;;;;;4942721;28;25064;-74
2023/03/20 04:44:04;;;;;;;26.35;11.52;;;;;;;;;;4950470;28;25065;-74
2023/03/20 04:46:30;;;;;;;23.63;11.60;;;;;;;;;;4945839;28;25059;-73
2023/03/20 04:48:56;;;;;;;24.60;11.38;;;;;;;;;;4943698;28;25083;-74
2023/03/20 04:51:22;;;;;;;20.98;11.20;;;;;;;;;;4948998;28;25077;-75
2023/03/20 04:53:48;;;;;;;34.88;12.15;;;;;;;;;;4940993;28;25088;-74
2023/03/20 04:56:14;;;;;;;25.48;10.45;;;;;;;;;;4947111;28;25071;-74
2023/03/20 04:58:40;;;;;;;26.73;11.63;;;;;;;;;;4947512;28;25061;-75
2023/03/20 05:01:06;;;;;;;26.27;10.32;;;;;;;;;;4952641;28;25045;-75
2023/03/20 05:03:32;;;;;;;23.65;10.65;;;;;;;;;;4946797;28;25109;-76
2023/03/20 05:05:58;;;;;;;29.02;11.45;;;;;;;;;;4947104;28;25159;-73
2023/03/20 05:08:24;;;;;;;21.05;11.05;;;;;;;;;;4941054;28;25118;-74
2023/03/20 05:10:50;;;;;;;26.67;11.25;;;;;;;;;;4947583;28;25106;-76
2023/03/20 05:13:16;;;;;;;23.90;10.93;;;;;;;;;;4942791;28;25082;-75
2023/03/20 05:15:43;;;;;;;32.53;13.27;;;;;;;;;;4948113;28;25057;-74
2023/03/20 05:18:09;;;;;;;26.48;10.70;;;;;;;;;;4946456;28;25105;-74
2023/03/20 05:20:35;;;;;;;28.98;12.25;;;;;;;;;;4949622;28;25163;-74
2023/03/20 05:23:02;;;;;;;29.45;11.40;;;;;;;;;;4944811;28;25006;-75
2023/03/20 05:25:28;;;;;;;32.88;11.15;;;;;;;;;;4944493;28;25091;-74
2023/03/20 05:27:54;;;;;;;21.38;9.93;;;;;;;;;;4939115;28;25168;-76
2023/03/20 05:30:20;;;;;;;28.40;10.48;;;;;;;;;;4935348;28;25079;-75
2023/03/20 05:32:49;;;;;;;32.30;10.75;;;;;;;;;;4936307;28;25100;-77
2023/03/20 05:35:15;;;;;;;35.25;12.27;;;;;;;;;;4932685;28;25139;-73
2023/03/20 05:37:41;;;;;;;19.30;10.00;;;;;;;;;;4951435;28;25073;-74
2023/03/20 05:40:07;;;;;;;28.20;11.18;;;;;;;;;;4951309;28;25077;-74
2023/03/20 05:42:33;;;;;;;22.85;10.27;;;;;;;;;;4954498;28;25080;-74
2023/03/20 05:44:59;;;;;;;28.98;10.07;;;;;;;;;;4945646;28;25107;-74
2023/03/20 05:47:25;;;;;;;24.70;10.10;;;;;;;;;;4954054;28;25080;-76
2023/03/20 05:49:51;;;;;;;23.17;10.07;;;;;;;;;;4954789;28;25149;-74
2023/03/20 05:52:17;;;;;;;23.70;9.27;;;;;;;;;;4949095;28;25056;-75
2023/03/20 05:54:43;;;;;;;19.88;8.73;;;;;;;;;;4942658;28;25097;-74
2023/03/20 05:57:09;;;;;;;31.75;10.50;;;;;;;;;;4939897;28;25083;-76
2023/03/20 05:59:36;;;;;;;24.67;9.20;;;;;;;;;;4954085;28;25075;-76
2023/03/20 06:02:02;;;;;;;49.35;11.82;;;;;;;;;;4967176;28;25067;-73
2023/03/20 06:04:28;;;;;;;29.65;9.63;;;;;;;;;;4940128;28;25162;-75
2023/03/20 06:06:54;;;;;;;28.50;12.32;;;;;;;;;;4948396;28;25151;-74
2023/03/20 06:09:20;;;;;;;22.77;11.07;;;;;;;;;;4936089;28;25165;-74
2023/03/20 06:11:46;;;;;;;26.25;9.88;;;;;;;;;;4949059;28;25070;-74
2023/03/20 06:14:12;;;;;;;25.92;10.10;;;;;;;;;;4946856;28;25103;-74
2023/03/20 06:16:38;;;;;;;33.80;11.75;;;;;;;;;;4940023;28;25059;-74
2023/03/20 06:19:04;;;;;;;29.27;10.45;;;;;;;;;;4946662;28;25153;-73
2023/03/20 06:21:30;;;;;;;23.65;10.63;;;;;;;;;;4932862;28;25107;-76
2023/03/20 06:23:58;;;;;;;20.38;8.55;;;;;;;;;;4938691;28;25169;-74
2023/03/20 06:26:24;;;;;;;21.25;9.48;;;;;;;;;;4931675;28;25118;-75
2023/03/20 06:28:50;;;;;;;26.17;9.27;;;;;;;;;;4946625;28;25107;-75
2023/03/20 06:31:16;;;;;;;28.38;10.55;;;;;;;;;;4941678;28;25117;-74
2023/03/20 06:33:44;;;;;;;22.15;9.20;;;;;;;;;;4945385;28;25156;-74
2023/03/20 06:36:10;;;;;;;23.35;8.77;;;;;;;;;;4950898;28;25066;-73
2023/03/20 06:38:36;;;;;;;24.25;8.60;;;;;;;;;;4938761;28;25065;-72
2023/03/20 06:41:02;;;;;;;21.20;9.48;;;;;;;;;;4932285;28;25058;-71
2023/03/20 06:43:28;;;;;;;28.10;9.90;;;;;;;;;;4938783;28;25077;-74
2023/03/20 06:45:54;;;;;;;27.65;8.73;;;;;;;;;;4945737;28;25091;-76
2023/03/20 06:48:21;;;;;;;27.70;8.32;;;;;;;;;;4940589;28;25071;-74
2023/03/20 06:50:51;;;;;;;23.65;9.52;;;;;;;;;;4945545;28;25061;-75
2023/03/20 06:53:17;;;;;;;23.90;8.30;;;;;;;;;;4941395;28;25065;-75
2023/03/20 06:55:46;;;;;;;18.85;8.77;;;;;;;;;;4957081;28;25096;-74
2023/03/20 06:58:12;;;;;;;26.05;8.40;;;;;;;;;;4957600;28;25065;-74
2023/03/20 07:00:38;;;;;;;21.20;8.10;;;;;;;;;;4944319;28;25137;-76
2023/03/20 07:03:04;;;;;;;18.08;8.35;;;;;;;;;;4938156;28;25100;-75
2023/03/20 07:05:31;;;;;;;25.13;8.73;;;;;;;;;;4939817;28;25093;-75
2023/03/20 07:07:57;;;;;;;28.08;7.88;;;;;;;;;;4949847;28;25090;-75
2023/03/20 07:10:23;;;;;;;28.58;8.95;;;;;;;;;;4954144;28;25118;-74
2023/03/20 07:12:49;;;;;;;28.13;8.68;;;;;;;;;;4956400;28;25055;-73
2023/03/20 07:15:16;;;;;;;22.05;7.78;;;;;;;;;;4935764;28;25083;-72
2023/03/20 07:17:42;;;;;;;19.23;7.15;;;;;;;;;;4944238;28;25164;-77
2023/03/20 07:20:08;;;;;;;19.80;8.23;;;;;;;;;;4945118;28;25067;-74
2023/03/20 07:22:34;;;;;;;27.08;8.20;;;;;;;;;;4948997;28;25067;-75
2023/03/20 07:25:01;;;;;;;29.83;9.77;;;;;;;;;;4938178;28;25123;-75
2023/03/20 07:27:27;;;;;;;20.98;7.88;;;;;;;;;;4939143;28;25928;-77
2023/03/20 07:29:53;;;;;;;16.92;7.32;;;;;;;;;;4939064;28;25100;-75
2023/03/20 07:32:19;;;;;;;25.15;8.15;;;;;;;;;;4942650;28;25097;-75
2023/03/20 07:34:46;;;;;;;24.10;9.27;;;;;;;;;;4940366;28;25068;-76
2023/03/20 07:37:12;;;;;;;21.05;8.35;;;;;;;;;;4934746;28;25080;-74
2023/03/20 07:39:38;;;;;;;18.92;8.30;;;;;;;;;;4938613;28;25113;-74
2023/03/20 07:42:04;;;;;;;20.05;8.13;;;;;;;;;;4940898;28;25104;-75
2023/03/20 07:44:30;;;;;;;30.20;7.88;;;;;;;;;;4936174;28;25060;-73
2023/03/20 07:46:56;;;;;;;22.90;7.55;;;;;;;;;;4939441;28;25080;-76
2023/03/20 07:49:22;;;;;;;18.48;7.85;;;;;;;;;;4933898;28;25093;-75
2023/03/20 07:51:49;;;;;;;27.35;7.68;;;;;;;;;;4933285;28;25119;-72
2023/03/20 07:54:15;;;;;;;20.63;8.00;;;;;;;;;;4925572;28;25181;-74
2023/03/20 07:56:41;;;;;;;21.48;8.68;;;;;;;;;;4940606;28;25085;-75
2023/03/20 07:59:07;;;;;;;23.33;7.95;;;;;;;;;;4946459;28;25058;-74
2023/03/20 08:01:33;;;;;;;23.88;7.40;;;;;;;;;;4942122;28;25060;-73
2023/03/20 08:04:00;;;;;;;20.95;8.52;;;;;;;;;;4944368;28;25055;-74
2023/03/20 08:06:25;;;;;;;24.13;7.95;;;;;;;;;;4934327;28;25176;-74
2023/03/20 08:08:51;;;;;;;18.90;7.97;;;;;;;;;;4939994;28;25075;-76
2023/03/20 08:11:18;;;;;;;21.35;8.20;;;;;;;;;;4940142;28;25130;-73
2023/03/20 08:13:44;;;;;;;19.73;7.65;;;;;;;;;;4931361;28;25086;-74
2023/03/20 08:16:10;;;;;;;26.88;7.53;;;;;;;;;;4938323;28;25067;-74
2023/03/20 08:18:36;;;;;;;22.05;7.53;;;;;;;;;;4931959;28;25101;-73
2023/03/20 08:21:03;;;;;;;21.80;8.75;;;;;;;;;;4940072;28;25085;-76
2023/03/20 08:23:29;;;;;;;25.20;8.40;;;;;;;;;;4930677;28;25082;-77
2023/03/20 08:25:55;;;;;;;19.88;7.93;;;;;;;;;;4934756;28;25090;-74
2023/03/20 08:28:21;;;;;;;26.60;7.85;;;;;;;;;;4937461;28;25101;-75
2023/03/20 08:30:47;;;;;;;28.92;8.07;;;;;;;;;;4935681;28;25137;-74
2023/03/20 08:33:15;;;;;;;25.27;7.60;;;;;;;;;;4935333;28;25097;-76
2023/03/20 08:35:41;;;;;;;23.52;8.02;;;;;;;;;;4943297;28;25063;-75
2023/03/20 08:38:10;;;;;;;22.98;7.57;;;;;;;;;;4946504;28;25059;-76
2023/03/20 08:40:36;;;;;;;20.48;6.97;;;;;;;;;;4944594;28;25059;-76
2023/03/20 08:43:04;;;;;;;22.60;6.28;;;;;;;;;;4944766;28;25066;-76
2023/03/20 08:45:30;;;;;;;22.63;6.60;;;;;;;;;;4944532;28;25062;-73
2023/03/20 08:47:56;;;;;;;14.93;6.82;;;;;;;;;;4942882;28;25094;-73
2023/03/20 08:50:22;;;;;;;21.52;6.40;;;;;;;;;;4945336;28;25098;-75
2023/03/20 08:52:48;;;;;;;29.45;7.88;;;;;;;;;;4937975;28;25063;-74
2023/03/20 08:55:15;;;;;;;24.55;8.48;;;;;;;;;;4936043;28;25068;-76
2023/03/20 08:57:41;;;;;;;21.60;8.32;;;;;;;;;;4941124;28;25069;-74
2023/03/20 09:00:08;;;;;;;24.83;7.55;;;;;;;;;;4934612;28;25147;-75
2023/03/20 09:02:34;;;;;;;24.90;8.98;;;;;;;;;;4945308;28;25456;-75
2023/03/20 09:05:00;;;;;;;20.00;7.55;;;;;;;;;;4936937;28;25048;-75
2023/03/20 09:07:27;;;;;;;29.77;8.73;;;;;;;;;;4943399;28;25062;-72
2023/03/20 09:09:53;;;;;;;24.83;7.47;;;;;;;;;;4938934;28;25133;-72
2023/03/20 09:12:19;;;;;;;31.60;8.10;;;;;;;;;;4941504;28;25082;-75
2023/03/20 09:14:44;;;;;;;20.70;8.07;;;;;;;;;;4939312;28;25057;-75
2023/03/20 09:17:10;;;;;;;22.75;9.65;;;;;;;;;;4945423;28;25062;-75
2023/03/20 09:19:38;;;;;;;27.00;9.10;;;;;;;;;;4937573;28;25126;-73
2023/03/20 09:22:05;;;;;;;26.92;8.85;;;;;;;;;;4943219;28;25068;-74
2023/03/20 09:24:32;;;;;;;22.02;8.65;;;;;;;;;;4939646;28;25066;-74
2023/03/20 09:26:59;;;;;;;19.42;8.13;;;;;;;;;;4947965;28;25074;-73
2023/03/20 09:29:25;;;;;;;24.30;8.63;;;;;;;;;;4944423;28;25056;-76
2023/03/20 09:31:52;;;;;;;25.48;9.13;;;;;;;;;;4940570;28;25092;-72
2023/03/20 09:34:18;;;;;;;21.17;8.65;;;;;;;;;;4944240;28;25147;-76
2023/03/20 09:36:45;;;;;;;22.55;9.23;;;;;;;;;;4946395;28;25061;-73
2023/03/20 09:39:11;;;;;;;34.85;10.63;;;;;;;;;;4937866;28;25083;-72
2023/03/20 09:41:37;;;;;;;28.80;9.68;;;;;;;;;;4941790;28;25075;-73
2023/03/20 09:44:08;;;;;;;22.63;8.52;;;;;;;;;;4944806;28;25155;-71
2023/03/20 09:46:37;;;;;;;30.70;10.27;;;;;;;;;;4939853;28;25071;-72
2023/03/20 09:49:03;;;;;;;27.02;8.82;;;;;;;;;;4951983;28;25117;-74
2023/03/20 09:51:44;;;;;;;20.27;8.38;;;;;;;;;;4937216;28;25085;-71
2023/03/20 09:54:17;;;;;;;23.30;8.80;;;;;;;;;;4945678;28;25126;-72
2023/03/20 09:56:42;;;;;;;;;;;;;;;;;;4938995;28;25076;-74
2023/03/20 09:59:11;;;;;;;30.25;9.60;;;;;;;;;;4946724;28;25108;-73
2023/03/20 10:01:43;;;;;;;24.83;9.30;;;;;;;;;;4942880;28;25062;-73
2023/03/20 10:04:10;;;;;;;24.98;9.48;;;;;;;;;;4937133;28;25067;-74
2023/03/20 10:06:36;;;;;;;25.70;10.48;;;;;;;;;;4941852;28;25103;-72
2023/03/20 10:09:09;;;;;;;29.85;10.77;;;;;;;;;;4932020;28;25106;-72
2023/03/20 10:11:35;;;;;;;20.58;10.20;;;;;;;;;;4941872;28;25071;-70
2023/03/20 10:14:13;;;;;;;29.15;10.38;;;;;;;;;;4937737;28;25122;-73
2023/03/20 10:16:39;;;;;;;25.92;10.63;;;;;;;;;;4941347;28;25121;-72
2023/03/20 10:19:05;;;;;;;30.50;10.82;;;;;;;;;;4938641;28;25091;-74
2023/03/20 10:21:36;;;;;;;25.88;9.15;;;;;;;;;;4937626;28;25091;-71
2023/03/20 10:24:03;;;;;;;24.25;10.93;;;;;;;;;;4943063;28;25074;-72
2023/03/20 10:26:31;;;;;;;23.73;9.52;;;;;;;;;;4936093;28;25060;-71
2023/03/20 10:29:01;;;;;;;30.33;11.32;;;;;;;;;;4935766;28;25057;-73
2023/03/20 10:31:30;;;;;;;22.75;9.93;;;;;;;;;;4944071;28;25061;-71
2023/03/20 10:34:08;;;;;;;25.92;10.65;;;;;;;;;;4943430;28;25069;-73
2023/03/20 10:36:46;;;;;;;27.50;10.50;;;;;;;;;;4936360;28;25092;-70
2023/03/20 10:39:31;;;;;;;28.83;10.20;;;;;;;;;;4935810;28;25062;-70
2023/03/20 10:41:59;;;;;;;40.03;11.25;;;;;;;;;;4943293;28;25061;-72
2023/03/20 10:44:34;;;;;;;27.85;10.35;;;;;;;;;;4937352;28;25087;-71
2023/03/20 10:47:02;;;;;;;29.13;12.02;;;;;;;;;;4937863;28;25101;-71
2023/03/20 10:49:47;;;;;;;29.40;10.20;;;;;;;;;;4946562;28;25127;-74
2023/03/20 10:52:17;;;;;;;31.10;11.48;;;;;;;;;;4933601;28;25084;-72
2023/03/20 10:54:46;;;;;;;22.88;11.45;;;;;;;;;;4946720;28;25074;-72
2023/03/20 10:57:15;;;;;;;31.13;11.55;;;;;;;;;;4941331;28;25129;-70
2023/03/20 10:59:43;;;;;;;33.28;13.70;;;;;;;;;;4943124;28;25068;-72
2023/03/20 11:02:10;;;;;;;30.10;11.95;;;;;;;;;;4941525;28;25088;-72
2023/03/20 11:04:36;;;;;;;23.65;12.57;;;;;;;;;;4927768;28;25078;-71
2023/03/20 11:07:09;;;;;;;30.92;11.68;;;;;;;;;;4937961;28;25149;-72
2023/03/20 11:09:35;;;;;;;36.60;12.93;;;;;;;;;;4944597;28;25079;-71
2023/03/20 11:12:02;;;;;;;30.88;12.07;;;;;;;;;;4942106;28;25065;-72
2023/03/20 11:14:38;;;;;;;23.92;10.38;;;;;;;;;;4947611;28;25061;-71
2023/03/20 11:17:05;;;;;;;22.48;10.77;;;;;;;;;;4955056;28;25089;-73
2023/03/20 11:19:33;;;;;;;22.55;10.15;;;;;;;;;;4956359;28;25085;-74
2023/03/20 11:22:01;;;;;;;21.92;9.73;;;;;;;;;;4955097;28;25093;-74
2023/03/20 11:24:27;;;;;;;19.40;9.63;;;;;;;;;;4951485;28;25074;-74
2023/03/20 11:26:53;;;;;;;21.95;9.45;;;;;;;;;;4953425;28;25088;-72
2023/03/20 11:29:26;;;;;;;23.13;9.98;;;;;;;;;;4957348;28;25099;-71
2023/03/20 11:31:52;;;;;;;22.25;9.43;;;;;;;;;;4957491;28;25077;-71
2023/03/20 11:34:18;;;;;;;27.55;9.38;;;;;;;;;;4955694;28;25060;-71
2023/03/20 11:36:46;;;;;;;25.70;9.40;;;;;;;;;;4960987;28;25059;-70
2023/03/20 11:39:14;;;;;;;26.70;9.02;;;;;;;;;;4959180;28;25064;-73
2023/03/20 11:41:47;;;;;;;33.90;10.27;;;;;;;;;;4955094;28;25082;-72
2023/03/20 11:44:23;;;;;;;28.95;9.10;;;;;;;;;;4944209;28;25108;-71
2023/03/20 11:47:07;;;;;;;25.23;8.68;;;;;;;;;;4981711;28;25069;-71
2023/03/20 11:49:46;;;;;;;22.75;8.38;;;;;;;;;;4951212;28;25069;-72
2023/03/20 11:52:14;;;;;;;24.88;9.50;;;;;;;;;;4938301;28;25103;-69
2023/03/20 11:54:45;;;;;;;24.33;8.65;;;;;;;;;;4952260;28;25067;-70
2023/03/20 11:57:28;;;;;;;32.05;9.57;;;;;;;;;;4944999;28;25085;-72
2023/03/20 11:59:55;;;;;;;25.45;7.95;;;;;;;;;;4944879;28;25085;-72
2023/03/20 12:02:22;;;;;;;21.02;7.97;;;;;;;;;;4940703;28;25148;-70
2023/03/20 12:04:48;;;;;;;18.05;7.97;;;;;;;;;;4952478;28;25117;-72
2023/03/20 12:07:17;;;;;;;23.58;8.23;;;;;;;;;;4953927;28;25064;-73
2023/03/20 12:09:46;;;;;;;18.70;7.60;;;;;;;;;;4957053;28;25109;-68
2023/03/20 12:12:31;;;;;;;20.83;7.72;;;;;;;;;;4955740;28;25056;-70
2023/03/20 12:15:12;;;;;;;19.00;7.95;;;;;;;;;;4954891;28;25096;-71
2023/03/20 12:17:42;;;;;;;29.90;7.78;;;;;;;;;;4949539;28;25071;-71
2023/03/20 12:20:20;;;;;;;27.13;8.63;;;;;;;;;;4952753;28;25140;-70
2023/03/20 12:22:51;;;;;;;17.73;7.05;;;;;;;;;;4957602;28;25062;-71
2023/03/20 12:25:35;;;;;;;19.30;7.25;;;;;;;;;;4949452;28;25058;-69
2023/03/20 12:28:04;;;;;;;23.60;7.32;;;;;;;;;;4960331;28;25051;-72
2023/03/20 12:30:48;;;;;;;21.58;8.68;;;;;;;;;;4959834;28;25072;-71
2023/03/20 12:33:21;;;;;;;23.02;7.85;;;;;;;;;;4956907;28;25107;-70
2023/03/20 12:35:49;;;;;;;18.02;8.23;;;;;;;;;;4944417;28;25070;-70
2023/03/20 12:38:29;;;;;;;23.23;8.50;;;;;;;;;;4947838;28;25060;-69
2023/03/20 12:41:00;;;;;;;21.40;8.10;;;;;;;;;;4938119;28;25085;-69
2023/03/20 12:43:28;;;;;;;34.28;10.15;;;;;;;;;;4956292;28;25081;-72
2023/03/20 12:46:25;;;;;;;25.80;9.07;;;;;;;;;;4954753;28;25144;-69
2023/03/20 12:49:05;;;;;;;18.45;8.23;;;;;;;;;;4942834;28;25179;-68
2023/03/20 12:51:57;;;;;;;21.33;7.57;;;;;;;;;;4958235;28;25083;-72
2023/03/20 12:54:32;;;;;;;19.25;7.68;;;;;;;;;;4936152;28;25138;-70
2023/03/20 12:57:10;;;;;;;24.63;8.63;;;;;;;;;;4956998;28;25082;-70
2023/03/20 12:59:44;;;;;;;20.60;8.95;;;;;;;;;;4949026;28;25078;-72
2023/03/20 13:02:17;;;;;;;21.33;8.13;;;;;;;;;;4945196;28;25142;-73
2023/03/20 13:04:53;;;;;;;21.65;9.38;;;;;;;;;;4943975;28;25079;-72
2023/03/20 13:07:33;;;;;;;24.80;9.18;;;;;;;;;;4939618;28;25147;-71
2023/03/20 13:10:02;;;;;;;28.02;8.70;;;;;;;;;;4945892;28;25087;-74
2023/03/20 13:12:35;;;;;;;22.90;9.25;;;;;;;;;;4937637;28;25094;-72
2023/03/20 13:15:13;;;;;;;24.92;10.38;;;;;;;;;;4934306;28;25070;-70
2023/03/20 13:17:46;;;;;;;34.67;10.77;;;;;;;;;;4941831;28;25057;-70
2023/03/20 13:20:11;;;;;;;;;;;;;;;;;;4946571;28;25057;-71
2023/03/20 13:22:48;;;;;;;22.45;10.75;;;;;;;;;;4945848;28;24081;-72
2023/03/20 13:25:20;;;;;;;27.70;11.68;;;;;;;;;;4939266;28;25051;-71
2023/03/20 13:27:54;;;;;;;27.35;12.23;;;;;;;;;;4954004;28;25111;-72
2023/03/20 13:30:39;;;;;;;28.48;12.98;;;;;;;;;;4940406;28;25071;-70
2023/03/20 13:33:24;;;;;;;25.85;11.02;;;;;;;;;;4952674;28;25064;-73
2023/03/20 13:36:06;;;;;;;38.88;13.65;;;;;;;;;;4946291;28;25100;-69
2023/03/20 13:38:35;;;;;;;32.08;13.98;;;;;;;;;;4955434;28;25170;-72
2023/03/20 13:41:02;;;;;;;49.33;13.70;;;;;;;;;;4944014;28;25052;-70
2023/03/20 13:43:33;;;;;;;49.63;14.15;;;;;;;;;;4949534;28;25059;-72
2023/03/20 13:46:06;;;;;;;38.15;15.57;;;;;;;;;;4949921;28;25149;-71
2023/03/20 13:48:34;;;;;;;30.05;14.27;;;;;;;;;;4937666;28;25056;-71
2023/03/20 13:51:00;;;;;;;36.00;15.18;;;;;;;;;;4932113;28;25063;-74
2023/03/20 13:53:34;;;;;;;34.10;15.38;;;;;;;;;;4942927;28;25051;-73
2023/03/20 13:56:27;;;;;;;32.35;15.20;;;;;;;;;;4936846;28;25146;-71
2023/03/20 13:59:15;;;;;;;41.70;15.68;;;;;;;;;;4931899;28;25063;-71
2023/03/20 14:02:00;;;;;;;33.83;15.35;;;;;;;;;;4943868;28;25063;-73
2023/03/20 14:04:27;;;;;;;39.67;15.20;;;;;;;;;;4936920;28;25110;-72
2023/03/20 14:06:53;;;;;;;31.85;15.45;;;;;;;;;;4944155;28;25073;-71
2023/03/20 14:09:30;;;;;;;27.83;15.30;;;;;;;;;;4934067;28;25059;-72
2023/03/20 14:12:09;;;;;;;34.45;16.58;;;;;;;;;;4944825;28;25060;-72
2023/03/20 14:14:43;;;;;;;34.22;15.23;;;;;;;;;;4942671;28;25070;-71
2023/03/20 14:17:17;;;;;;;39.78;15.73;;;;;;;;;;4945201;28;25143;-73
2023/03/20 14:19:44;;;;;;;36.45;16.65;;;;;;;;;;4943074;28;25044;-73
2023/03/20 14:22:19;;;;;;;42.35;16.63;;;;;;;;;;4944453;28;25062;-73
2023/03/20 14:24:56;;;;;;;36.45;17.33;;;;;;;;;;4947143;28;25067;-72
2023/03/20 14:27:24;;;;;;;35.25;16.20;;;;;;;;;;4939321;28;25091;-72
2023/03/20 14:29:50;;;;;;;27.95;14.60;;;;;;;;;;4932980;28;25073;-73
2023/03/20 14:32:16;;;;;;;44.00;15.65;;;;;;;;;;4930158;28;25057;-73
2023/03/20 14:35:00;;;;;;;37.20;15.52;;;;;;;;;;4931513;28;25098;-72
2023/03/20 14:37:26;;;;;;;28.02;14.05;;;;;;;;;;4932326;28;25056;-71